Weather observations for the past three days for
Lewiston, Lewiston-Nez Perce County Airport
Imperial (Metric)
Date Time (pdt) Wind (mph) Vis. (mi.) Weather Sky Cond. Temperature (ºF) Relative Humidity Wind Chill (°F) Heat Index (°F) Pressure Precipitation (in)
Air Dwpt 6 hour altimeter (in) sea level (mb) 1 hr 3 hr 6 hr
Max. Min.
04 04:56 E 3 10.00 Fair CLR 53.1 41 61 51.1 64% 29.79 1007.9
04 03:56 Calm 10.00 Fair CLR 51.1 41 69% 29.8 1008.3
04 02:56 Calm 10.00 Fair CLR 55.9 41 57% 29.78 1007.8
04 01:56 Calm 10.00 Fair CLR 57.9 39.9 51% 29.78 1007.7
04 00:56 Calm 10.00 Fair CLR 57 39.9 53% 29.78 1008.0
03 23:56 SW 6 10.00 Fair CLR 61 39.9 46% 29.78 1008.0
03 22:56 S 7 10.00 Fair CLR 61 41 82 61 48% 29.78 1008.1
03 21:56 SW 9 10.00 Fair CLR 63 41 45% 29.79 1008.1
03 20:56 S 8 10.00 Fair CLR 69.1 42.1 38% 29.78 1007.9
03 19:56 Calm 10.00 Fair CLR 77 35.1 22% 77 29.77 1007.4
03 18:56 W 5 10.00 Fair CLR 78.1 37.9 24% 78 29.78 1007.7
03 17:56 NW 10 10.00 Fair CLR 81 34 18% 79 29.79 1008.3
03 16:56 NW 13 G 21 10.00 Fair CLR 82 32 82.9 66.9 16% 80 29.81 1008.8
03 15:56 N 12 10.00 Fair CLR 82 37.9 21% 80 29.83 1009.3
03 14:56 N 12 G 18 10.00 Fair CLR 82 35.1 18% 80 29.85 1009.9
03 13:56 NW 3 10.00 Fair CLR 79 39.9 25% 78 29.87 1010.8
03 12:56 Calm 10.00 Fair CLR 75 46 36% 77 29.9 1011.8
03 11:56 Calm 10.00 Fair CLR 72 45 38% 29.92 1012.6
03 10:56 Vrbl 3 10.00 Fair CLR 66.9 45 66.9 50 45% 29.94 1013.5
03 09:56 N 8 9.00 Fair CLR 64 46.9 54% 29.96 1014.1
03 08:56 Calm 10.00 Fair CLR 61 45 56% 29.97 1014.3
03 07:56 E 7 10.00 Fair CLR 57 45 64% 29.97 1014.2
03 06:56 NE 6 10.00 Fair CLR 55.9 43 62% 29.96 1014.1
03 05:56 E 5 10.00 Fair CLR 51.1 43 74% 29.96 1013.9
03 04:56 Calm 10.00 Fair CLR 53.1 41 63 52 64% 29.95 1013.5
03 03:56 Calm 10.00 Fair CLR 54 41 62% 29.95 1013.5
03 02:56 Calm 10.00 Fair CLR 55.9 41 57% 29.95 1013.4
03 01:56 Calm 10.00 Fair CLR 57.9 41 53% 29.94 1013.2
03 00:56 S 7 10.00 Fair CLR 57 39.9 53% 29.93 1013.0
02 23:56 S 7 10.00 Fair CLR 61 39.9 46% 29.92 1012.7
02 22:56 S 8 10.00 Fair CLR 62.1 41 82 62.1 46% 29.92 1012.6
02 21:56 S 8 10.00 Fair CLR 64.9 43 45% 29.91 1012.4
02 20:56 S 7 10.00 Fair CLR 68 44.1 42% 29.9 1012.0
02 19:56 Calm 10.00 Fair CLR 75.9 41 29% 77 29.88 1011.1
02 18:56 SW 3 10.00 Fair CLR 78.1 37 23% 78 29.87 1011.1
02 17:56 Calm 10.00 Fair CLR 82 35.1 18% 80 29.88 1011.1
02 16:56 E 6 10.00 Fair CLR 82 35.1 82.9 68 18% 80 29.89 1011.4
02 15:56 N 3 10.00 Fair CLR 81 36 20% 79 29.9 1011.9
02 14:56 Calm 10.00 Fair CLR 79 45 30% 79 29.93 1012.8
02 13:56 W 5 10.00 Fair CLR 75.9 46.9 36% 78 29.95 1013.5
02 12:56 NE 6 10.00 Fair CLR 73.9 46 37% 29.97 1014.3
02 11:56 E 6 10.00 Fair CLR 70 42.1 37% 29.98 1014.9
02 10:56 Calm 10.00 Fair CLR 66.9 44.1 66.9 51.1 44% 30 1015.5
02 09:56 E 7 10.00 Fair CLR 64.9 44.1 47% 30 1015.7
02 08:56 E 7 10.00 Fair CLR 60.1 42.1 52% 30.02 1016.1
02 07:56 E 9 10.00 Fair CLR 57 39.9 53% 30.01 1015.7
02 06:56 SE 5 10.00 Fair CLR 52 41 66% 30.01 1015.6
02 05:56 SE 3 10.00 Fair CLR 52 39.9 64% 29.99 1015.2
02 04:56 E 5 10.00 Fair CLR 54 39.9 60.1 51.1 59% 29.99 1014.9
02 03:56 Calm 10.00 Fair CLR 54 39.9 59% 29.99 1015.1
02 02:56 SE 6 10.00 Fair CLR 53.1 41 64% 29.98 1014.8
02 01:56 Calm 10.00 Fair CLR 57.9 39.9 51% 29.98 1014.6
02 00:56 SE 5 10.00 Fair CLR 55.9 42.1 60% 29.98 1014.8
01 23:56 S 3 10.00 Fair CLR 57.9 42.1 56% 29.98 1014.6
01 22:56 S 6 10.00 Fair CLR 59 42.1 79 57.9 54% 29.97 1014.5
01 21:56 S 5 10.00 Fair CLR 61 42.1 50% 29.97 1014.5
01 20:56 Calm 10.00 Fair CLR 64.9 43 45% 29.96 1014.2
01 19:56 E 5 10.00 Fair CLR 71.1 37 29% 29.94 1013.4
01 18:56 E 7 10.00 Fair CLR 75.9 37 25% 77 29.94 1013.4
01 17:56 E 5 10.00 Fair CLR 78.1 36 22% 78 29.95 1013.7
01 16:56 N 3 10.00 Fair CLR 79 35.1 80.1 66 20% 78 29.96 1014.0
01 15:56 Calm 10.00 Fair CLR 78.1 34 20% 77 29.97 1014.7
01 14:56 Vrbl 5 10.00 Fair CLR 78.1 39 25% 78 30 1015.3
01 13:56 Vrbl 5 10.00 Fair CLR 77 42.1 29% 78 30.02 1015.9
01 12:56 Vrbl 6 10.00 Fair CLR 73 44.1 35% 30.03 1016.6
01 11:56 Vrbl 6 10.00 Fair CLR 70 41 35% 30.05 1017.4
01 10:56 Vrbl 5 10.00 Fair CLR 64.9 39 66 44.1 39% 30.07 1018.1
01 09:56 Vrbl 5 10.00 Fair CLR 61 41 48% 30.09 1018.7
01 08:56 N 5 10.00 Fair CLR 54 39.9 59% 30.11 1019.5
01 07:56 Vrbl 3 10.00 Fair CLR 52 39 61% 30.1 1019.2
01 06:56 E 7 10.00 Fair CLR 48.9 37 64% 46 30.09 1018.8
01 05:56 E 3 10.00 Fair CLR 45 36 71% 30.08 1018.4
Date Time (pdt) Wind (mph) Vis. (mi.) Weather Sky Cond. Air Dwpt Max. Min. Relative Humidity Wind Chill (°F) Heat Index (°F) altimeter (in) sea level (mb) 1 hr 3 hr 6 hr
6 hour
Temperature (ºF) Pressure Precipitation (in)